sensor_id;sensor_type;location;lat;lon;timestamp;temperature;humidity
31731;DHT22;18310;55.586;12.286;2023-02-15T00:00:52;8.10;64.10
31731;DHT22;18310;55.586;12.286;2023-02-15T00:03:56;6.50;62.60
31731;DHT22;18310;55.586;12.286;2023-02-15T00:06:59;8.10;63.40
31731;DHT22;18310;55.586;12.286;2023-02-15T00:10:02;8.10;63.20
31731;DHT22;18310;55.586;12.286;2023-02-15T00:13:06;8.20;63.30
31731;DHT22;18310;55.586;12.286;2023-02-15T00:16:12;8.10;63.30
31731;DHT22;18310;55.586;12.286;2023-02-15T00:19:16;8.40;63.30
31731;DHT22;18310;55.586;12.286;2023-02-15T00:22:20;7.90;63.10
31731;DHT22;18310;55.586;12.286;2023-02-15T00:25:24;8.20;63.10
31731;DHT22;18310;55.586;12.286;2023-02-15T00:28:27;8.30;63.20
31731;DHT22;18310;55.586;12.286;2023-02-15T00:31:32;8.20;63.20
31731;DHT22;18310;55.586;12.286;2023-02-15T00:34:36;8.20;63.00
31731;DHT22;18310;55.586;12.286;2023-02-15T00:37:39;9.20;63.20
31731;DHT22;18310;55.586;12.286;2023-02-15T00:40:42;8.20;63.10
31731;DHT22;18310;55.586;12.286;2023-02-15T00:43:45;8.20;63.20
31731;DHT22;18310;55.586;12.286;2023-02-15T00:46:49;8.10;63.20
31731;DHT22;18310;55.586;12.286;2023-02-15T00:49:52;7.90;63.20
31731;DHT22;18310;55.586;12.286;2023-02-15T00:52:55;8.20;63.20
31731;DHT22;18310;55.586;12.286;2023-02-15T00:55:58;7.30;62.60
31731;DHT22;18310;55.586;12.286;2023-02-15T00:59:02;9.50;63.80
31731;DHT22;18310;55.586;12.286;2023-02-15T01:02:06;8.10;63.00
31731;DHT22;18310;55.586;12.286;2023-02-15T01:05:09;8.10;63.70
31731;DHT22;18310;55.586;12.286;2023-02-15T01:08:13;8.10;63.20
31731;DHT22;18310;55.586;12.286;2023-02-15T01:11:18;8.10;63.50
31731;DHT22;18310;55.586;12.286;2023-02-15T01:14:24;8.10;63.10
31731;DHT22;18310;55.586;12.286;2023-02-15T01:17:28;8.10;63.60
31731;DHT22;18310;55.586;12.286;2023-02-15T01:20:34;8.10;63.70
31731;DHT22;18310;55.586;12.286;2023-02-15T01:23:42;8.10;63.80
31731;DHT22;18310;55.586;12.286;2023-02-15T01:26:46;8.10;63.70
31731;DHT22;18310;55.586;12.286;2023-02-15T01:29:49;8.10;64.10
31731;DHT22;18310;55.586;12.286;2023-02-15T01:32:54;8.10;63.60
31731;DHT22;18310;55.586;12.286;2023-02-15T01:35:57;8.10;63.70
31731;DHT22;18310;55.586;12.286;2023-02-15T01:39:02;8.10;63.80
31731;DHT22;18310;55.586;12.286;2023-02-15T01:42:07;8.10;64.00
31731;DHT22;18310;55.586;12.286;2023-02-15T01:45:20;8.00;64.00
31731;DHT22;18310;55.586;12.286;2023-02-15T01:48:27;8.00;64.50
31731;DHT22;18310;55.586;12.286;2023-02-15T01:51:33;8.00;64.50
31731;DHT22;18310;55.586;12.286;2023-02-15T01:54:38;8.10;64.70
31731;DHT22;18310;55.586;12.286;2023-02-15T01:57:43;8.00;64.60
31731;DHT22;18310;55.586;12.286;2023-02-15T02:00:48;8.10;64.80
31731;DHT22;18310;55.586;12.286;2023-02-15T02:03:58;8.10;64.80
31731;DHT22;18310;55.586;12.286;2023-02-15T02:07:09;8.10;65.00
31731;DHT22;18310;55.586;12.286;2023-02-15T02:10:18;8.10;64.80
31731;DHT22;18310;55.586;12.286;2023-02-15T02:13:24;9.20;65.70
31731;DHT22;18310;55.586;12.286;2023-02-15T02:16:34;8.10;65.50
31731;DHT22;18310;55.586;12.286;2023-02-15T02:20:13;8.20;65.80
31731;DHT22;18310;55.586;12.286;2023-02-15T02:23:39;8.20;66.20
31731;DHT22;18310;55.586;12.286;2023-02-15T02:27:22;8.30;66.00
31731;DHT22;18310;55.586;12.286;2023-02-15T02:31:07;8.30;65.70
31731;DHT22;18310;55.586;12.286;2023-02-15T02:34:39;8.30;66.30
31731;DHT22;18310;55.586;12.286;2023-02-15T02:37:51;10.80;67.30
31731;DHT22;18310;55.586;12.286;2023-02-15T02:41:09;8.30;66.70
31731;DHT22;18310;55.586;12.286;2023-02-15T02:44:22;8.30;66.20
31731;DHT22;18310;55.586;12.286;2023-02-15T02:47:30;8.30;66.30
31731;DHT22;18310;55.586;12.286;2023-02-15T02:50:39;8.30;66.70
31731;DHT22;18310;55.586;12.286;2023-02-15T02:53:43;10.50;68.10
31731;DHT22;18310;55.586;12.286;2023-02-15T02:56:47;8.30;66.40
31731;DHT22;18310;55.586;12.286;2023-02-15T02:59:53;9.40;67.40
31731;DHT22;18310;55.586;12.286;2023-02-15T03:03:02;8.30;66.90
31731;DHT22;18310;55.586;12.286;2023-02-15T03:06:14;8.40;67.10
31731;DHT22;18310;55.586;12.286;2023-02-15T03:09:24;8.60;67.20
31731;DHT22;18310;55.586;12.286;2023-02-15T03:12:37;8.30;67.10
31731;DHT22;18310;55.586;12.286;2023-02-15T03:15:44;8.30;67.00
31731;DHT22;18310;55.586;12.286;2023-02-15T03:19:09;8.40;67.10
31731;DHT22;18310;55.586;12.286;2023-02-15T03:22:19;6.20;65.90
31731;DHT22;18310;55.586;12.286;2023-02-15T03:25:31;9.80;68.60
31731;DHT22;18310;55.586;12.286;2023-02-15T03:28:41;9.50;68.00
31731;DHT22;18310;55.586;12.286;2023-02-15T03:31:50;8.30;67.40
31731;DHT22;18310;55.586;12.286;2023-02-15T03:34:59;8.30;67.30
31731;DHT22;18310;55.586;12.286;2023-02-15T03:38:06;8.30;67.20
31731;DHT22;18310;55.586;12.286;2023-02-15T03:41:12;8.30;67.60
31731;DHT22;18310;55.586;12.286;2023-02-15T03:44:25;8.30;67.50
31731;DHT22;18310;55.586;12.286;2023-02-15T03:47:33;8.20;67.60
31731;DHT22;18310;55.586;12.286;2023-02-15T03:50:39;8.20;67.50
31731;DHT22;18310;55.586;12.286;2023-02-15T03:54:22;6.60;66.70
31731;DHT22;18310;55.586;12.286;2023-02-15T03:57:45;8.20;67.90
31731;DHT22;18310;55.586;12.286;2023-02-15T04:01:13;8.10;67.70
31731;DHT22;18310;55.586;12.286;2023-02-15T04:04:42;8.70;68.20
31731;DHT22;18310;55.586;12.286;2023-02-15T04:07:47;8.20;67.90
31731;DHT22;18310;55.586;12.286;2023-02-15T04:10:51;8.20;67.80
31731;DHT22;18310;55.586;12.286;2023-02-15T04:13:54;8.20;67.60
31731;DHT22;18310;55.586;12.286;2023-02-15T04:16:58;8.20;67.90
31731;DHT22;18310;55.586;12.286;2023-02-15T04:20:01;8.20;67.90
31731;DHT22;18310;55.586;12.286;2023-02-15T04:23:21;8.60;68.10
31731;DHT22;18310;55.586;12.286;2023-02-15T04:26:45;8.10;68.00
31731;DHT22;18310;55.586;12.286;2023-02-15T04:29:50;8.10;68.30
31731;DHT22;18310;55.586;12.286;2023-02-15T04:32:53;8.10;68.30
31731;DHT22;18310;55.586;12.286;2023-02-15T04:35:58;8.10;68.20
31731;DHT22;18310;55.586;12.286;2023-02-15T04:39:01;8.10;68.30
31731;DHT22;18310;55.586;12.286;2023-02-15T04:42:06;9.60;69.30
31731;DHT22;18310;55.586;12.286;2023-02-15T04:45:10;8.20;68.40
31731;DHT22;18310;55.586;12.286;2023-02-15T04:48:15;8.20;68.40
31731;DHT22;18310;55.586;12.286;2023-02-15T04:51:18;8.90;68.80
31731;DHT22;18310;55.586;12.286;2023-02-15T04:54:22;8.20;68.30
31731;DHT22;18310;55.586;12.286;2023-02-15T04:57:26;8.20;68.50
31731;DHT22;18310;55.586;12.286;2023-02-15T05:00:29;8.20;68.40
31731;DHT22;18310;55.586;12.286;2023-02-15T05:03:32;8.20;68.30
31731;DHT22;18310;55.586;12.286;2023-02-15T05:06:35;8.10;68.30
31731;DHT22;18310;55.586;12.286;2023-02-15T05:09:39;7.70;68.40
31731;DHT22;18310;55.586;12.286;2023-02-15T05:12:43;8.10;68.60
31731;DHT22;18310;55.586;12.286;2023-02-15T05:15:47;8.00;68.70
31731;DHT22;18310;55.586;12.286;2023-02-15T05:18:51;8.10;68.90
31731;DHT22;18310;55.586;12.286;2023-02-15T05:21:54;8.10;68.80
31731;DHT22;18310;55.586;12.286;2023-02-15T05:24:57;8.10;68.80
31731;DHT22;18310;55.586;12.286;2023-02-15T05:28:19;9.90;69.80
31731;DHT22;18310;55.586;12.286;2023-02-15T05:31:23;8.10;68.80
31731;DHT22;18310;55.586;12.286;2023-02-15T05:34:26;8.10;68.80
31731;DHT22;18310;55.586;12.286;2023-02-15T05:37:29;9.20;69.60
31731;DHT22;18310;55.586;12.286;2023-02-15T05:40:33;8.10;68.90
31731;DHT22;18310;55.586;12.286;2023-02-15T05:43:38;8.10;69.00
31731;DHT22;18310;55.586;12.286;2023-02-15T05:46:42;8.10;69.10
31731;DHT22;18310;55.586;12.286;2023-02-15T05:49:45;8.20;69.50
31731;DHT22;18310;55.586;12.286;2023-02-15T05:52:48;8.10;68.90
31731;DHT22;18310;55.586;12.286;2023-02-15T05:55:53;8.20;68.90
31731;DHT22;18310;55.586;12.286;2023-02-15T05:59:02;8.10;68.80
31731;DHT22;18310;55.586;12.286;2023-02-15T06:02:05;8.10;68.90
31731;DHT22;18310;55.586;12.286;2023-02-15T06:05:09;8.10;69.00
31731;DHT22;18310;55.586;12.286;2023-02-15T06:08:12;8.10;69.20
31731;DHT22;18310;55.586;12.286;2023-02-15T06:11:15;8.10;69.20
31731;DHT22;18310;55.586;12.286;2023-02-15T06:14:19;8.10;69.20
31731;DHT22;18310;55.586;12.286;2023-02-15T06:17:22;8.10;69.40
31731;DHT22;18310;55.586;12.286;2023-02-15T06:20:26;8.10;69.20
31731;DHT22;18310;55.586;12.286;2023-02-15T06:23:29;7.40;68.90
31731;DHT22;18310;55.586;12.286;2023-02-15T06:26:32;8.00;69.30
31731;DHT22;18310;55.586;12.286;2023-02-15T06:29:37;8.10;69.50
31731;DHT22;18310;55.586;12.286;2023-02-15T06:32:40;8.10;69.50
31731;DHT22;18310;55.586;12.286;2023-02-15T06:35:44;8.10;69.50
31731;DHT22;18310;55.586;12.286;2023-02-15T06:38:47;8.00;69.60
31731;DHT22;18310;55.586;12.286;2023-02-15T06:41:50;8.00;69.80
31731;DHT22;18310;55.586;12.286;2023-02-15T06:44:55;8.00;69.90
31731;DHT22;18310;55.586;12.286;2023-02-15T06:47:58;6.70;69.30
31731;DHT22;18310;55.586;12.286;2023-02-15T06:51:01;9.60;70.90
31731;DHT22;18310;55.586;12.286;2023-02-15T06:54:04;8.00;70.10
31731;DHT22;18310;55.586;12.286;2023-02-15T06:57:07;8.00;70.20
31731;DHT22;18310;55.586;12.286;2023-02-15T07:00:14;8.00;70.40
31731;DHT22;18310;55.586;12.286;2023-02-15T07:03:19;8.00;70.80
31731;DHT22;18310;55.586;12.286;2023-02-15T07:06:22;8.00;70.60
31731;DHT22;18310;55.586;12.286;2023-02-15T07:09:25;9.50;71.50
31731;DHT22;18310;55.586;12.286;2023-02-15T07:12:28;8.00;70.60
31731;DHT22;18310;55.586;12.286;2023-02-15T07:15:49;8.10;70.80
31731;DHT22;18310;55.586;12.286;2023-02-15T07:18:52;8.10;70.90
31731;DHT22;18310;55.586;12.286;2023-02-15T07:21:55;8.10;70.80
31731;DHT22;18310;55.586;12.286;2023-02-15T07:24:58;8.10;70.80
31731;DHT22;18310;55.586;12.286;2023-02-15T07:28:02;8.10;70.90
31731;DHT22;18310;55.586;12.286;2023-02-15T07:31:07;8.10;70.90
31731;DHT22;18310;55.586;12.286;2023-02-15T07:34:11;8.20;70.80
31731;DHT22;18310;55.586;12.286;2023-02-15T07:37:14;8.10;70.50
31731;DHT22;18310;55.586;12.286;2023-02-15T07:40:17;8.20;70.60
31731;DHT22;18310;55.586;12.286;2023-02-15T07:43:21;8.30;70.50
31731;DHT22;18310;55.586;12.286;2023-02-15T07:46:25;8.20;70.40
31731;DHT22;18310;55.586;12.286;2023-02-15T07:49:28;8.20;70.40
31731;DHT22;18310;55.586;12.286;2023-02-15T07:52:31;8.20;70.30
31731;DHT22;18310;55.586;12.286;2023-02-15T07:55:34;8.20;70.30
31731;DHT22;18310;55.586;12.286;2023-02-15T07:58:38;8.20;70.30
31731;DHT22;18310;55.586;12.286;2023-02-15T08:01:54;8.20;70.30
31731;DHT22;18310;55.586;12.286;2023-02-15T08:04:58;8.20;70.40
31731;DHT22;18310;55.586;12.286;2023-02-15T08:08:03;10.60;71.80
31731;DHT22;18310;55.586;12.286;2023-02-15T08:11:17;8.20;70.40
31731;DHT22;18310;55.586;12.286;2023-02-15T08:14:27;8.20;70.40
31731;DHT22;18310;55.586;12.286;2023-02-15T08:20:39;8.30;70.20
31731;DHT22;18310;55.586;12.286;2023-02-15T08:23:42;8.30;69.50
31731;DHT22;18310;55.586;12.286;2023-02-15T08:26:46;8.30;70.10
31731;DHT22;18310;55.586;12.286;2023-02-15T08:29:49;8.20;70.20
31731;DHT22;18310;55.586;12.286;2023-02-15T08:48:20;8.30;69.10
31731;DHT22;18310;55.586;12.286;2023-02-15T08:51:24;9.90;70.80
31731;DHT22;18310;55.586;12.286;2023-02-15T08:54:28;9.00;70.80
31731;DHT22;18310;55.586;12.286;2023-02-15T08:57:32;9.30;71.10
31731;DHT22;18310;55.586;12.286;2023-02-15T09:00:35;8.40;70.80
31731;DHT22;18310;55.586;12.286;2023-02-15T09:03:39;8.20;70.70
31731;DHT22;18310;55.586;12.286;2023-02-15T09:06:45;8.20;70.70
31731;DHT22;18310;55.586;12.286;2023-02-15T09:09:50;9.70;71.50
31731;DHT22;18310;55.586;12.286;2023-02-15T09:12:53;8.30;70.70
31731;DHT22;18310;55.586;12.286;2023-02-15T09:15:59;9.20;71.20
31731;DHT22;18310;55.586;12.286;2023-02-15T09:19:05;7.40;69.90
31731;DHT22;18310;55.586;12.286;2023-02-15T09:22:08;8.30;70.30
31731;DHT22;18310;55.586;12.286;2023-02-15T09:25:11;8.40;70.30
31731;DHT22;18310;55.586;12.286;2023-02-15T09:28:15;8.30;70.20
31731;DHT22;18310;55.586;12.286;2023-02-15T09:31:19;8.00;70.00
31731;DHT22;18310;55.586;12.286;2023-02-15T09:34:27;8.30;70.30
31731;DHT22;18310;55.586;12.286;2023-02-15T09:37:31;8.30;70.20
31731;DHT22;18310;55.586;12.286;2023-02-15T09:40:45;8.30;69.90
31731;DHT22;18310;55.586;12.286;2023-02-15T09:44:00;8.30;70.90
31731;DHT22;18310;55.586;12.286;2023-02-15T09:47:54;10.20;71.80
31731;DHT22;18310;55.586;12.286;2023-02-15T09:51:41;8.40;71.30
31731;DHT22;18310;55.586;12.286;2023-02-15T09:55:02;8.40;71.40
31731;DHT22;18310;55.586;12.286;2023-02-15T09:58:21;8.40;71.00
31731;DHT22;18310;55.586;12.286;2023-02-15T10:01:34;8.40;71.00
31731;DHT22;18310;55.586;12.286;2023-02-15T10:04:54;8.40;70.80
31731;DHT22;18310;55.586;12.286;2023-02-15T10:08:27;8.50;71.10
31731;DHT22;18310;55.586;12.286;2023-02-15T10:15:29;8.90;71.40
31731;DHT22;18310;55.586;12.286;2023-02-15T10:18:51;8.50;71.00
31731;DHT22;18310;55.586;12.286;2023-02-15T10:22:06;8.60;71.00
31731;DHT22;18310;55.586;12.286;2023-02-15T10:25:28;9.40;71.50
31731;DHT22;18310;55.586;12.286;2023-02-15T10:28:44;8.60;71.20
31731;DHT22;18310;55.586;12.286;2023-02-15T10:31:56;10.00;72.10
31731;DHT22;18310;55.586;12.286;2023-02-15T10:35:13;10.80;72.20
31731;DHT22;18310;55.586;12.286;2023-02-15T10:38:27;8.70;71.00
31731;DHT22;18310;55.586;12.286;2023-02-15T10:41:45;9.60;71.50
31731;DHT22;18310;55.586;12.286;2023-02-15T10:45:07;8.70;70.90
31731;DHT22;18310;55.586;12.286;2023-02-15T10:52:13;8.80;71.10
31731;DHT22;18310;55.586;12.286;2023-02-15T10:55:36;8.80;70.90
31731;DHT22;18310;55.586;12.286;2023-02-15T10:59:03;9.20;71.10
31731;DHT22;18310;55.586;12.286;2023-02-15T11:02:20;8.80;70.70
31731;DHT22;18310;55.586;12.286;2023-02-15T11:05:39;8.80;70.50
31731;DHT22;18310;55.586;12.286;2023-02-15T11:08:49;9.10;70.60
31731;DHT22;18310;55.586;12.286;2023-02-15T11:11:56;8.80;70.40
31731;DHT22;18310;55.586;12.286;2023-02-15T11:15:14;8.80;70.30
31731;DHT22;18310;55.586;12.286;2023-02-15T11:18:26;8.80;70.30
31731;DHT22;18310;55.586;12.286;2023-02-15T11:21:37;8.70;70.30
31731;DHT22;18310;55.586;12.286;2023-02-15T11:24:46;8.70;70.40
31731;DHT22;18310;55.586;12.286;2023-02-15T11:27:50;9.00;70.60
31731;DHT22;18310;55.586;12.286;2023-02-15T11:30:57;8.70;70.50
31731;DHT22;18310;55.586;12.286;2023-02-15T11:34:13;8.80;70.40
31731;DHT22;18310;55.586;12.286;2023-02-15T11:37:29;8.80;70.50
31731;DHT22;18310;55.586;12.286;2023-02-15T11:40:43;8.80;70.50
31731;DHT22;18310;55.586;12.286;2023-02-15T11:43:54;8.80;70.50
31731;DHT22;18310;55.586;12.286;2023-02-15T11:47:02;8.80;70.60
31731;DHT22;18310;55.586;12.286;2023-02-15T11:50:10;8.80;70.50
31731;DHT22;18310;55.586;12.286;2023-02-15T11:53:17;9.90;71.20
31731;DHT22;18310;55.586;12.286;2023-02-15T11:56:23;10.30;71.40
31731;DHT22;18310;55.586;12.286;2023-02-15T11:59:31;8.80;70.40
31731;DHT22;18310;55.586;12.286;2023-02-15T12:02:44;8.70;70.30
31731;DHT22;18310;55.586;12.286;2023-02-15T12:05:55;10.40;71.40
31731;DHT22;18310;55.586;12.286;2023-02-15T12:09:07;8.40;70.30
31731;DHT22;18310;55.586;12.286;2023-02-15T12:12:25;8.70;70.50
31731;DHT22;18310;55.586;12.286;2023-02-15T12:15:30;8.60;70.30
31731;DHT22;18310;55.586;12.286;2023-02-15T12:18:39;8.60;70.30
31731;DHT22;18310;55.586;12.286;2023-02-15T12:21:49;8.60;70.60
31731;DHT22;18310;55.586;12.286;2023-02-15T12:24:56;8.60;70.60
31731;DHT22;18310;55.586;12.286;2023-02-15T12:28:03;8.60;70.30
31731;DHT22;18310;55.586;12.286;2023-02-15T12:31:21;8.60;70.80
31731;DHT22;18310;55.586;12.286;2023-02-15T12:34:30;8.60;70.50
31731;DHT22;18310;55.586;12.286;2023-02-15T12:37:52;8.50;70.60
31731;DHT22;18310;55.586;12.286;2023-02-15T12:40:59;8.40;71.10
31731;DHT22;18310;55.586;12.286;2023-02-15T12:44:07;7.60;70.40
31731;DHT22;18310;55.586;12.286;2023-02-15T12:47:20;8.40;70.90
31731;DHT22;18310;55.586;12.286;2023-02-15T12:50:31;8.20;70.70
31731;DHT22;18310;55.586;12.286;2023-02-15T12:53:36;9.30;71.60
31731;DHT22;18310;55.586;12.286;2023-02-15T12:56:40;8.30;71.10
31731;DHT22;18310;55.586;12.286;2023-02-15T12:59:48;8.30;71.20
31731;DHT22;18310;55.586;12.286;2023-02-15T13:02:54;7.30;70.80
31731;DHT22;18310;55.586;12.286;2023-02-15T13:06:01;8.30;71.20
31731;DHT22;18310;55.586;12.286;2023-02-15T13:09:14;7.90;71.00
31731;DHT22;18310;55.586;12.286;2023-02-15T13:12:21;8.20;71.30
31731;DHT22;18310;55.586;12.286;2023-02-15T13:15:33;9.30;71.90
31731;DHT22;18310;55.586;12.286;2023-02-15T13:18:41;8.20;71.50
31731;DHT22;18310;55.586;12.286;2023-02-15T13:21:49;8.20;71.60
31731;DHT22;18310;55.586;12.286;2023-02-15T13:24:56;8.20;71.60
31731;DHT22;18310;55.586;12.286;2023-02-15T13:28:02;7.70;71.30
31731;DHT22;18310;55.586;12.286;2023-02-15T13:31:12;8.20;71.70
31731;DHT22;18310;55.586;12.286;2023-02-15T13:34:22;8.10;71.80
31731;DHT22;18310;55.586;12.286;2023-02-15T13:37:44;8.10;72.00
31731;DHT22;18310;55.586;12.286;2023-02-15T13:41:04;8.10;72.10
31731;DHT22;18310;55.586;12.286;2023-02-15T13:44:21;8.10;71.80
31731;DHT22;18310;55.586;12.286;2023-02-15T13:47:42;8.10;72.00
31731;DHT22;18310;55.586;12.286;2023-02-15T13:51:05;7.60;72.10
31731;DHT22;18310;55.586;12.286;2023-02-15T13:54:42;8.00;72.30
31731;DHT22;18310;55.586;12.286;2023-02-15T13:58:13;8.70;73.00
31731;DHT22;18310;55.586;12.286;2023-02-15T14:01:33;8.00;72.30
31731;DHT22;18310;55.586;12.286;2023-02-15T14:04:57;8.00;72.20
31731;DHT22;18310;55.586;12.286;2023-02-15T14:08:19;8.00;72.50
31731;DHT22;18310;55.586;12.286;2023-02-15T14:11:43;9.20;72.70
31731;DHT22;18310;55.586;12.286;2023-02-15T14:15:04;8.00;71.90
31731;DHT22;18310;55.586;12.286;2023-02-15T14:18:24;8.00;72.10
31731;DHT22;18310;55.586;12.286;2023-02-15T14:21:34;8.00;72.80
31731;DHT22;18310;55.586;12.286;2023-02-15T14:24:44;8.00;72.20
31731;DHT22;18310;55.586;12.286;2023-02-15T14:28:03;8.30;72.40
31731;DHT22;18310;55.586;12.286;2023-02-15T14:31:12;8.00;72.70
31731;DHT22;18310;55.586;12.286;2023-02-15T14:34:20;8.00;72.40
31731;DHT22;18310;55.586;12.286;2023-02-15T14:37:35;8.00;72.30
31731;DHT22;18310;55.586;12.286;2023-02-15T14:40:50;9.50;73.30
31731;DHT22;18310;55.586;12.286;2023-02-15T14:44:13;9.20;73.10
31731;DHT22;18310;55.586;12.286;2023-02-15T14:47:26;8.00;72.50
31731;DHT22;18310;55.586;12.286;2023-02-15T14:50:45;8.00;72.40
31731;DHT22;18310;55.586;12.286;2023-02-15T14:53:49;8.00;72.80
31731;DHT22;18310;55.586;12.286;2023-02-15T15:01:04;8.10;72.80
31731;DHT22;18310;55.586;12.286;2023-02-15T15:04:12;8.00;72.60
31731;DHT22;18310;55.586;12.286;2023-02-15T15:07:25;9.30;73.30
31731;DHT22;18310;55.586;12.286;2023-02-15T15:10:38;6.40;71.60
31731;DHT22;18310;55.586;12.286;2023-02-15T15:13:54;7.90;72.60
31731;DHT22;18310;55.586;12.286;2023-02-15T15:17:01;7.90;72.80
31731;DHT22;18310;55.586;12.286;2023-02-15T15:20:12;7.90;72.70
31731;DHT22;18310;55.586;12.286;2023-02-15T15:23:45;4.60;70.80
31731;DHT22;18310;55.586;12.286;2023-02-15T15:26:48;7.20;73.00
31731;DHT22;18310;55.586;12.286;2023-02-15T15:29:52;8.00;73.00
31731;DHT22;18310;55.586;12.286;2023-02-15T15:33:01;8.00;73.90
31731;DHT22;18310;55.586;12.286;2023-02-15T15:44:28;8.10;73.00
31731;DHT22;18310;55.586;12.286;2023-02-15T15:48:00;8.60;73.30
31731;DHT22;18310;55.586;12.286;2023-02-15T15:51:18;8.10;72.30
31731;DHT22;18310;55.586;12.286;2023-02-15T15:54:24;10.00;74.00
31731;DHT22;18310;55.586;12.286;2023-02-15T15:57:31;8.10;72.30
31731;DHT22;18310;55.586;12.286;2023-02-15T16:00:39;8.10;72.30
31731;DHT22;18310;55.586;12.286;2023-02-15T16:03:52;9.20;73.00
31731;DHT22;18310;55.586;12.286;2023-02-15T16:07:03;8.10;72.50
31731;DHT22;18310;55.586;12.286;2023-02-15T16:10:29;8.20;72.30
31731;DHT22;18310;55.586;12.286;2023-02-15T16:13:35;7.20;71.70
31731;DHT22;18310;55.586;12.286;2023-02-15T16:16:38;8.20;72.30
31731;DHT22;18310;55.586;12.286;2023-02-15T16:19:44;8.20;72.30
31731;DHT22;18310;55.586;12.286;2023-02-15T16:22:51;8.20;72.50
31731;DHT22;18310;55.586;12.286;2023-02-15T16:26:11;8.20;72.40
31731;DHT22;18310;55.586;12.286;2023-02-15T16:29:27;8.20;72.60
31731;DHT22;18310;55.586;12.286;2023-02-15T16:32:32;7.90;72.40
31731;DHT22;18310;55.586;12.286;2023-02-15T16:35:41;8.30;72.40
31731;DHT22;18310;55.586;12.286;2023-02-15T16:39:16;8.30;72.50
31731;DHT22;18310;55.586;12.286;2023-02-15T16:42:22;8.80;72.90
31731;DHT22;18310;55.586;12.286;2023-02-15T16:45:26;8.30;72.30
31731;DHT22;18310;55.586;12.286;2023-02-15T16:48:32;8.40;72.40
31731;DHT22;18310;55.586;12.286;2023-02-15T16:51:44;8.40;72.30
31731;DHT22;18310;55.586;12.286;2023-02-15T16:54:52;8.40;72.40
31731;DHT22;18310;55.586;12.286;2023-02-15T16:58:01;8.40;72.30
31731;DHT22;18310;55.586;12.286;2023-02-15T17:01:08;8.50;72.30
31731;DHT22;18310;55.586;12.286;2023-02-15T17:04:26;8.50;72.20
31731;DHT22;18310;55.586;12.286;2023-02-15T17:07:38;8.50;72.50
31731;DHT22;18310;55.586;12.286;2023-02-15T17:10:46;9.80;73.00
31731;DHT22;18310;55.586;12.286;2023-02-15T17:14:21;8.50;72.10
31731;DHT22;18310;55.586;12.286;2023-02-15T17:17:31;8.50;72.50
31731;DHT22;18310;55.586;12.286;2023-02-15T17:20:40;8.40;71.80
31731;DHT22;18310;55.586;12.286;2023-02-15T17:23:58;9.50;72.90
31731;DHT22;18310;55.586;12.286;2023-02-15T17:27:12;8.40;72.60
31731;DHT22;18310;55.586;12.286;2023-02-15T17:30:30;10.40;73.80
31731;DHT22;18310;55.586;12.286;2023-02-15T17:33:45;8.40;72.70
31731;DHT22;18310;55.586;12.286;2023-02-15T17:36:57;8.30;72.70
31731;DHT22;18310;55.586;12.286;2023-02-15T17:40:14;8.40;72.60
31731;DHT22;18310;55.586;12.286;2023-02-15T17:43:21;8.40;72.50
31731;DHT22;18310;55.586;12.286;2023-02-15T17:46:25;8.40;72.40
31731;DHT22;18310;55.586;12.286;2023-02-15T17:49:33;8.40;71.80
31731;DHT22;18310;55.586;12.286;2023-02-15T17:52:38;8.40;72.20
31731;DHT22;18310;55.586;12.286;2023-02-15T17:55:43;8.30;72.20
31731;DHT22;18310;55.586;12.286;2023-02-15T17:58:47;8.30;72.30
31731;DHT22;18310;55.586;12.286;2023-02-15T18:01:50;8.30;72.20
31731;DHT22;18310;55.586;12.286;2023-02-15T18:05:12;8.30;72.40
31731;DHT22;18310;55.586;12.286;2023-02-15T18:08:34;8.20;72.40
31731;DHT22;18310;55.586;12.286;2023-02-15T18:11:56;8.20;72.30
31731;DHT22;18310;55.586;12.286;2023-02-15T18:14:59;8.10;71.90
31731;DHT22;18310;55.586;12.286;2023-02-15T18:18:03;8.10;72.30
31731;DHT22;18310;55.586;12.286;2023-02-15T18:21:06;8.30;72.40
31731;DHT22;18310;55.586;12.286;2023-02-15T18:24:17;8.00;72.20
31731;DHT22;18310;55.586;12.286;2023-02-15T18:27:24;8.00;72.60
31731;DHT22;18310;55.586;12.286;2023-02-15T18:30:30;7.90;72.40
31731;DHT22;18310;55.586;12.286;2023-02-15T18:33:40;7.90;72.30
31731;DHT22;18310;55.586;12.286;2023-02-15T18:36:48;7.50;72.30
31731;DHT22;18310;55.586;12.286;2023-02-15T18:39:58;7.80;72.60
31731;DHT22;18310;55.586;12.286;2023-02-15T18:43:11;7.80;73.00
31731;DHT22;18310;55.586;12.286;2023-02-15T18:46:21;7.80;73.30
31731;DHT22;18310;55.586;12.286;2023-02-15T18:49:25;7.80;73.30
31731;DHT22;18310;55.586;12.286;2023-02-15T18:52:32;7.80;73.30
31731;DHT22;18310;55.586;12.286;2023-02-15T18:55:40;5.80;72.20
31731;DHT22;18310;55.586;12.286;2023-02-15T18:58:46;7.80;73.10
31731;DHT22;18310;55.586;12.286;2023-02-15T19:01:53;7.80;73.20
31731;DHT22;18310;55.586;12.286;2023-02-15T19:04:57;7.70;72.90
31731;DHT22;18310;55.586;12.286;2023-02-15T19:08:01;8.70;73.80
31731;DHT22;18310;55.586;12.286;2023-02-15T19:11:14;7.70;73.20
31731;DHT22;18310;55.586;12.286;2023-02-15T19:14:25;9.40;74.30
31731;DHT22;18310;55.586;12.286;2023-02-15T19:17:30;7.70;73.20
31731;DHT22;18310;55.586;12.286;2023-02-15T19:20:36;7.70;73.20
31731;DHT22;18310;55.586;12.286;2023-02-15T19:23:40;7.70;73.40
31731;DHT22;18310;55.586;12.286;2023-02-15T19:26:46;7.70;73.30
31731;DHT22;18310;55.586;12.286;2023-02-15T19:29:52;7.70;73.20
31731;DHT22;18310;55.586;12.286;2023-02-15T19:32:57;7.30;73.20
31731;DHT22;18310;55.586;12.286;2023-02-15T19:36:05;7.50;73.30
31731;DHT22;18310;55.586;12.286;2023-02-15T19:39:24;7.50;73.40
31731;DHT22;18310;55.586;12.286;2023-02-15T19:42:31;7.50;73.50
31731;DHT22;18310;55.586;12.286;2023-02-15T19:45:36;7.50;73.40
31731;DHT22;18310;55.586;12.286;2023-02-15T19:48:46;7.50;73.50
31731;DHT22;18310;55.586;12.286;2023-02-15T19:51:52;7.20;73.30
31731;DHT22;18310;55.586;12.286;2023-02-15T19:54:55;7.50;73.70
31731;DHT22;18310;55.586;12.286;2023-02-15T19:58:00;7.50;73.70
31731;DHT22;18310;55.586;12.286;2023-02-15T20:01:04;7.50;73.70
31731;DHT22;18310;55.586;12.286;2023-02-15T20:04:08;7.50;73.70
31731;DHT22;18310;55.586;12.286;2023-02-15T20:07:21;7.50;73.70
31731;DHT22;18310;55.586;12.286;2023-02-15T20:10:29;7.40;73.80
31731;DHT22;18310;55.586;12.286;2023-02-15T20:13:33;8.20;74.60
31731;DHT22;18310;55.586;12.286;2023-02-15T20:16:41;7.40;73.60
31731;DHT22;18310;55.586;12.286;2023-02-15T20:19:46;7.40;73.70
31731;DHT22;18310;55.586;12.286;2023-02-15T20:22:54;7.40;73.60
31731;DHT22;18310;55.586;12.286;2023-02-15T20:26:01;7.40;73.80
31731;DHT22;18310;55.586;12.286;2023-02-15T20:29:16;7.30;73.70
31731;DHT22;18310;55.586;12.286;2023-02-15T20:32:24;7.30;73.70
31731;DHT22;18310;55.586;12.286;2023-02-15T20:35:28;7.30;73.90